createdAt,value
2023-04-08T00:00:15.091Z,88.49
2023-04-08T00:02:43.453Z,86.75
2023-04-08T00:05:11.730Z,87.78
2023-04-08T00:07:40.965Z,87.90
2023-04-08T00:10:10.219Z,87.35
2023-04-08T00:12:40.331Z,86.30
2023-04-08T00:15:11.116Z,86.14
2023-04-08T00:17:39.017Z,86.22
2023-04-08T00:20:07.836Z,85.99
2023-04-08T00:22:37.411Z,86.29
2023-04-08T00:25:09.656Z,86.32
2023-04-08T00:27:37.526Z,85.73
2023-04-08T00:30:06.694Z,85.65
2023-04-08T00:32:34.675Z,85.79
2023-04-08T00:35:02.592Z,85.40
2023-04-08T00:37:31.398Z,85.37
2023-04-08T00:39:59.508Z,86.20
2023-04-08T00:42:30.815Z,87.10
2023-04-08T00:44:59.234Z,87.00
2023-04-08T00:47:29.467Z,87.20
2023-04-08T00:49:57.402Z,86.12
2023-04-08T00:52:25.401Z,86.51
2023-04-08T00:54:53.906Z,87.03
2023-04-08T00:57:21.820Z,87.29
2023-04-08T00:59:51.079Z,87.09
2023-04-08T01:02:28.249Z,86.49
2023-04-08T01:05:03.298Z,86.87
2023-04-08T01:07:34.597Z,87.68
2023-04-08T01:10:07.047Z,86.92
2023-04-08T01:12:41.786Z,87.62
2023-04-08T01:15:13.036Z,87.50
2023-04-08T01:17:42.964Z,87.75
2023-04-08T01:20:12.422Z,87.98
2023-04-08T01:22:51.356Z,86.96
2023-04-08T01:25:23.060Z,86.56
2023-04-08T01:27:56.751Z,86.07
2023-04-08T01:30:26.992Z,87.20
2023-04-08T01:32:56.672Z,86.85
2023-04-08T01:35:25.820Z,87.78
2023-04-08T01:37:55.309Z,88.17
2023-04-08T01:40:24.272Z,88.49
2023-04-08T01:42:57.023Z,87.60
2023-04-08T01:45:26.386Z,88.60
2023-04-08T01:47:54.866Z,89.33
2023-04-08T01:50:23.944Z,87.72
2023-04-08T01:52:53.795Z,87.75
2023-04-08T01:55:22.307Z,86.63
2023-04-08T01:57:54.138Z,88.58
2023-04-08T02:00:25.914Z,88.64
2023-04-08T02:02:55.819Z,88.18
2023-04-08T02:05:23.918Z,86.92
2023-04-08T02:07:52.069Z,87.80
2023-04-08T02:10:21.138Z,88.11
2023-04-08T02:12:49.423Z,86.72
2023-04-08T02:15:18.854Z,88.50
2023-04-08T02:17:53.270Z,88.34
2023-04-08T02:20:27.682Z,87.09
2023-04-08T02:23:02.337Z,88.42
2023-04-08T02:25:31.861Z,86.84
2023-04-08T02:28:01.288Z,86.79
2023-04-08T02:30:32.410Z,87.02
2023-04-08T02:33:05.249Z,87.76
2023-04-08T02:35:33.915Z,88.54
2023-04-08T02:38:01.904Z,87.95
2023-04-08T02:40:33.304Z,86.95
2023-04-08T02:43:01.656Z,87.35
2023-04-08T02:45:32.428Z,89.17
2023-04-08T02:48:01.639Z,88.46
2023-04-08T02:50:29.597Z,88.88
2023-04-08T02:52:57.385Z,86.93
2023-04-08T02:55:25.430Z,85.63
2023-04-08T02:57:53.299Z,86.77
2023-04-08T03:00:21.180Z,86.15
2023-04-08T03:02:50.721Z,85.43
2023-04-08T03:05:18.765Z,86.39
2023-04-08T03:07:46.587Z,87.58
2023-04-08T03:10:14.458Z,88.34
2023-04-08T03:12:44.406Z,87.99
2023-04-08T03:15:12.287Z,87.06
2023-04-08T03:17:40.223Z,86.23
2023-04-08T03:20:10.400Z,86.58
2023-04-08T03:22:38.408Z,86.08
2023-04-08T03:25:07.108Z,87.70
2023-04-08T03:27:34.936Z,87.82
2023-04-08T03:30:02.887Z,86.64
2023-04-08T03:32:30.865Z,85.58
2023-04-08T03:34:58.845Z,84.98
2023-04-08T03:37:28.139Z,86.29
2023-04-08T03:39:56.654Z,85.77
2023-04-08T03:42:27.254Z,85.50
2023-04-08T03:44:55.032Z,86.90
2023-04-08T03:47:22.968Z,87.12
2023-04-08T03:49:50.879Z,87.55
2023-04-08T03:52:19.821Z,86.71
2023-04-08T03:54:48.917Z,85.75
2023-04-08T03:57:17.093Z,87.16
2023-04-08T03:59:44.978Z,86.87
2023-04-08T04:02:12.860Z,86.94
2023-04-08T04:04:40.680Z,87.03
2023-04-08T04:07:08.577Z,87.21
2023-04-08T04:09:39.473Z,86.56
2023-04-08T04:12:08.710Z,87.68
2023-04-08T04:14:36.599Z,88.56
2023-04-08T04:17:04.559Z,88.65
2023-04-08T04:19:32.708Z,88.72
2023-04-08T04:22:00.519Z,89.16
2023-04-08T04:24:28.305Z,88.91
2023-04-08T04:26:56.539Z,88.87
2023-04-08T04:29:28.344Z,90.27
2023-04-08T04:31:56.283Z,90.22
2023-04-08T04:34:24.177Z,90.58
2023-04-08T04:36:52.105Z,89.38
2023-04-08T04:39:19.874Z,88.78
2023-04-08T04:41:49.088Z,87.82
2023-04-08T04:44:17.059Z,87.78
2023-04-08T04:46:46.206Z,87.92
2023-04-08T04:49:15.647Z,88.00
2023-04-08T04:51:44.646Z,88.23
2023-04-08T04:54:12.450Z,87.87
2023-04-08T04:56:40.649Z,88.01
2023-04-08T04:59:08.706Z,89.02
2023-04-08T05:01:36.652Z,88.25
2023-04-08T05:04:06.260Z,87.94
2023-04-08T05:06:34.158Z,88.22
2023-04-08T05:09:02.108Z,87.25
2023-04-08T05:11:29.925Z,86.04
2023-04-08T05:13:57.789Z,86.70
2023-04-08T05:16:25.952Z,87.01
2023-04-08T05:18:53.783Z,89.06
2023-04-08T05:21:23.807Z,90.63
2023-04-08T05:23:54.275Z,90.52
2023-04-08T05:26:22.791Z,89.78
2023-04-08T05:28:51.660Z,89.03
2023-04-08T05:31:20.136Z,88.11
2023-04-08T05:33:48.688Z,89.27
2023-04-08T05:36:17.870Z,88.42
2023-04-08T05:38:47.460Z,89.20
2023-04-08T05:41:15.619Z,88.14
2023-04-08T05:43:43.435Z,87.79
2023-04-08T05:46:11.733Z,87.70
2023-04-08T05:48:39.578Z,87.15
2023-04-08T05:51:07.602Z,87.18
2023-04-08T05:53:36.999Z,87.55
2023-04-08T05:56:06.428Z,87.18
2023-04-08T05:58:34.273Z,87.80
2023-04-08T06:01:02.200Z,88.85
2023-04-08T06:03:31.847Z,88.47
2023-04-08T06:05:59.754Z,89.02
2023-04-08T06:08:27.724Z,88.38
2023-04-08T06:10:55.746Z,87.02
2023-04-08T06:13:25.840Z,87.08
2023-04-08T06:15:54.894Z,87.24
2023-04-08T06:18:23.451Z,88.27
2023-04-08T06:20:52.231Z,88.44
2023-04-08T06:23:21.894Z,89.97
2023-04-08T06:25:50.137Z,89.61
2023-04-08T06:28:18.151Z,88.55
2023-04-08T06:30:47.528Z,87.53
2023-04-08T06:33:15.784Z,89.22
2023-04-08T06:35:43.836Z,89.15
2023-04-08T06:38:12.515Z,87.77
2023-04-08T06:40:41.218Z,88.05
2023-04-08T06:43:14.629Z,88.27
2023-04-08T06:46:10.880Z,89.96
2023-04-08T06:49:10.508Z,88.16
2023-04-08T06:52:01.600Z,88.78
2023-04-08T06:54:43.903Z,86.46
2023-04-08T06:57:38.193Z,87.66
2023-04-08T07:00:17.393Z,88.69
2023-04-08T07:03:09.744Z,88.74
2023-04-08T07:05:47.649Z,85.88
2023-04-08T07:08:30.750Z,87.70
2023-04-08T07:11:11.027Z,85.64
2023-04-08T07:13:56.481Z,85.21
2023-04-08T07:16:33.772Z,85.86
2023-04-08T07:19:17.207Z,85.54
2023-04-08T07:21:57.068Z,84.45
2023-04-08T07:24:32.065Z,84.45
2023-04-08T07:27:11.994Z,83.00
2023-04-08T07:29:43.663Z,83.03
2023-04-08T07:32:18.502Z,84.28
2023-04-08T07:34:52.639Z,85.55
2023-04-08T07:37:23.932Z,82.99
2023-04-08T07:40:07.199Z,83.59
2023-04-08T07:42:55.240Z,82.04
2023-04-08T07:45:27.795Z,81.84
2023-04-08T07:48:04.555Z,79.80
2023-04-08T07:51:08.283Z,79.46
2023-04-08T07:53:38.400Z,77.33
2023-04-08T07:56:14.248Z,77.57
2023-04-08T07:58:53.944Z,78.02
2023-04-08T08:01:52.369Z,79.53
2023-04-08T08:04:58.329Z,79.41
2023-04-08T08:07:49.153Z,77.73
2023-04-08T08:10:21.702Z,79.52
2023-04-08T08:12:51.410Z,78.26
2023-04-08T08:15:20.128Z,77.45
2023-04-08T08:17:50.923Z,75.66
2023-04-08T08:20:29.700Z,77.04
2023-04-08T08:22:59.541Z,75.88
2023-04-08T08:25:27.606Z,75.14
2023-04-08T08:27:55.528Z,74.04
2023-04-08T08:30:23.670Z,73.73
2023-04-08T08:32:52.296Z,74.64
2023-04-08T08:35:21.362Z,75.65
2023-04-08T08:37:54.232Z,73.05
2023-04-08T08:40:43.432Z,73.77
2023-04-08T08:43:11.364Z,72.83
2023-04-08T08:45:40.916Z,71.97
2023-04-08T08:48:10.345Z,69.79
2023-04-08T08:50:39.232Z,66.67
2023-04-08T08:53:10.250Z,69.41
2023-04-08T08:56:05.816Z,69.08
2023-04-08T08:58:29.518Z,69.64
2023-04-08T09:00:57.525Z,66.26
2023-04-08T09:03:28.010Z,68.52
2023-04-08T09:05:59.133Z,68.16
2023-04-08T09:08:28.821Z,68.82
2023-04-08T09:10:57.670Z,69.31
2023-04-08T09:13:27.133Z,66.34
2023-04-08T09:16:10.240Z,66.92
2023-04-08T09:18:39.738Z,65.11
2023-04-08T09:21:09.202Z,64.28
2023-04-08T09:23:42.417Z,63.14
2023-04-08T09:26:14.431Z,62.32
2023-04-08T09:28:59.621Z,60.58
2023-04-08T09:31:32.086Z,62.77
2023-04-08T09:34:02.296Z,62.43
2023-04-08T09:36:30.528Z,60.48
2023-04-08T09:38:58.939Z,59.16
2023-04-08T09:41:30.340Z,57.79
2023-04-08T09:44:01.273Z,55.52
2023-04-08T09:46:34.958Z,58.48
2023-04-08T09:49:07.675Z,60.13
2023-04-08T09:51:42.370Z,54.49
2023-04-08T09:54:15.880Z,55.34
2023-04-08T09:56:50.587Z,56.08
2023-04-08T09:59:21.780Z,55.93
2023-04-08T10:01:55.511Z,53.36
2023-04-08T10:04:27.722Z,52.17
2023-04-08T10:06:59.313Z,52.29
2023-04-08T10:09:28.584Z,51.22
2023-04-08T10:11:57.384Z,52.57
2023-04-08T10:14:28.828Z,53.56
2023-04-08T10:17:36.976Z,54.41
2023-04-08T10:20:05.452Z,54.67
2023-04-08T10:22:49.769Z,53.32
2023-04-08T10:25:34.446Z,52.97
2023-04-08T10:28:23.908Z,52.92
2023-04-08T10:30:53.169Z,54.06
2023-04-08T10:33:26.253Z,53.10
2023-04-08T10:35:56.174Z,54.55
2023-04-08T10:38:24.566Z,51.27
2023-04-08T10:40:54.111Z,51.35
2023-04-08T10:43:25.473Z,52.43
2023-04-08T10:45:55.504Z,52.46
2023-04-08T10:48:29.990Z,53.65
2023-04-08T10:50:59.975Z,53.83
2023-04-08T10:53:29.573Z,54.05
2023-04-08T10:56:07.270Z,53.00
2023-04-08T10:58:36.795Z,53.49
2023-04-08T11:01:07.990Z,53.51
2023-04-08T11:03:38.030Z,54.12
2023-04-08T11:06:07.662Z,54.65
2023-04-08T11:08:38.370Z,54.65
2023-04-08T11:11:11.446Z,54.32
2023-04-08T11:13:51.602Z,55.01
2023-04-08T11:16:23.130Z,55.65
2023-04-08T11:18:55.597Z,55.03
2023-04-08T11:21:25.638Z,55.17
2023-04-08T11:23:54.320Z,55.26
2023-04-08T11:26:26.136Z,54.86
2023-04-08T11:28:56.094Z,54.34
2023-04-08T11:31:25.773Z,54.13
2023-04-08T11:34:09.143Z,54.59
2023-04-08T11:37:02.445Z,54.95
2023-04-08T11:39:47.488Z,54.69
2023-04-08T11:42:29.796Z,54.88
2023-04-08T11:45:16.958Z,56.17
2023-04-08T11:47:51.809Z,54.72
2023-04-08T11:50:30.226Z,54.47
2023-04-08T11:53:00.614Z,55.33
2023-04-08T11:55:31.653Z,54.51
2023-04-08T11:58:16.537Z,54.76
2023-04-08T12:00:52.491Z,54.75
2023-04-08T12:03:34.692Z,56.11
2023-04-08T12:06:10.666Z,55.81
2023-04-08T12:08:55.625Z,55.58
2023-04-08T12:11:35.139Z,55.80
2023-04-08T12:14:03.326Z,55.84
2023-04-08T12:16:31.279Z,55.49
2023-04-08T12:19:00.421Z,55.23
2023-04-08T12:21:29.643Z,55.59
2023-04-08T12:23:57.513Z,55.66
2023-04-08T12:26:27.045Z,55.72
2023-04-08T12:28:54.955Z,56.19
2023-04-08T12:31:23.222Z,55.62
2023-04-08T12:33:52.439Z,54.48
2023-04-08T12:36:20.424Z,55.39
2023-04-08T12:38:49.920Z,55.13
2023-04-08T12:41:18.041Z,54.38
2023-04-08T12:43:45.889Z,54.10
2023-04-08T12:46:13.936Z,54.42
2023-04-08T12:48:42.459Z,54.47
2023-04-08T12:51:10.606Z,55.06
2023-04-08T12:53:38.829Z,54.31
2023-04-08T12:56:08.649Z,56.08
2023-04-08T12:58:36.762Z,56.26
2023-04-08T13:01:06.511Z,56.49
2023-04-08T13:03:44.979Z,57.30
2023-04-08T13:06:17.110Z,58.23
2023-04-08T13:08:45.548Z,58.39
2023-04-08T13:11:15.842Z,57.21
2023-04-08T13:13:47.607Z,56.82
2023-04-08T13:16:16.168Z,56.70
2023-04-08T13:18:46.162Z,57.34
2023-04-08T13:21:16.532Z,54.98
2023-04-08T13:23:48.193Z,56.95
2023-04-08T13:26:20.976Z,57.72
2023-04-08T13:28:57.152Z,57.36
2023-04-08T13:31:26.935Z,57.24
2023-04-08T13:33:58.163Z,55.94
2023-04-08T13:36:28.773Z,54.81
2023-04-08T13:38:58.127Z,55.55
2023-04-08T13:41:28.492Z,56.67
2023-04-08T13:43:58.605Z,56.70
2023-04-08T13:46:28.022Z,57.15
2023-04-08T13:49:03.553Z,57.07
2023-04-08T13:51:33.322Z,56.43
2023-04-08T13:54:01.857Z,57.08
2023-04-08T13:56:31.337Z,57.91
2023-04-08T13:58:59.617Z,57.59
2023-04-08T14:01:28.198Z,56.14
2023-04-08T14:03:56.438Z,55.44
2023-04-08T14:06:24.302Z,55.31
2023-04-08T14:08:52.360Z,55.40
2023-04-08T14:11:24.573Z,55.06
2023-04-08T14:13:55.339Z,53.27
2023-04-08T14:16:24.054Z,56.06
2023-04-08T14:18:53.059Z,55.23
2023-04-08T14:21:22.368Z,54.67
2023-04-08T14:23:51.730Z,54.80
2023-04-08T14:26:21.383Z,54.62
2023-04-08T14:28:50.185Z,54.72
2023-04-08T14:31:19.933Z,54.95
2023-04-08T14:33:47.878Z,54.34
2023-04-08T14:36:16.018Z,54.34
2023-04-08T14:38:44.103Z,54.43
2023-04-08T14:41:11.990Z,55.26
2023-04-08T14:43:39.997Z,55.09
2023-04-08T14:46:08.056Z,55.27
2023-04-08T14:48:37.257Z,55.53
2023-04-08T14:51:06.016Z,54.94
2023-04-08T14:53:34.019Z,55.05
2023-04-08T14:56:02.005Z,55.80
2023-04-08T14:58:29.843Z,56.23
2023-04-08T15:00:57.985Z,55.29
2023-04-08T15:03:26.036Z,55.59
2023-04-08T15:05:58.853Z,55.59
2023-04-08T15:08:26.964Z,55.83
2023-04-08T15:10:55.007Z,56.21
2023-04-08T15:13:23.007Z,56.72
2023-04-08T15:15:51.680Z,57.72
2023-04-08T15:18:19.719Z,58.02
2023-04-08T15:20:47.587Z,57.99
2023-04-08T15:23:18.310Z,58.73
2023-04-08T15:25:51.512Z,58.39
2023-04-08T15:28:29.225Z,58.76
2023-04-08T15:31:18.630Z,59.78
2023-04-08T15:33:50.791Z,59.20
2023-04-08T15:36:32.394Z,59.65
2023-04-08T15:39:15.496Z,60.07
2023-04-08T15:42:02.720Z,59.52
2023-04-08T15:44:49.251Z,59.66
2023-04-08T15:47:36.823Z,59.90
2023-04-08T15:50:16.745Z,59.93
2023-04-08T15:52:56.817Z,60.74
2023-04-08T15:55:42.556Z,60.32
2023-04-08T15:58:10.823Z,60.90
2023-04-08T16:00:43.970Z,60.88
2023-04-08T16:03:15.869Z,59.77
2023-04-08T16:05:45.157Z,60.79
2023-04-08T16:08:20.463Z,60.24
2023-04-08T16:11:14.385Z,59.50
2023-04-08T16:14:01.884Z,59.77
2023-04-08T16:16:30.938Z,59.57
2023-04-08T16:19:00.173Z,60.16
2023-04-08T16:21:29.017Z,61.35
2023-04-08T16:23:57.487Z,61.93
2023-04-08T16:26:28.729Z,61.72
2023-04-08T16:28:56.808Z,62.34
2023-04-08T16:31:27.000Z,63.47
2023-04-08T16:33:58.659Z,63.47
2023-04-08T16:36:34.832Z,61.81
2023-04-08T16:39:14.253Z,63.55
2023-04-08T16:41:46.463Z,62.30
2023-04-08T16:44:16.733Z,61.95
2023-04-08T16:46:44.600Z,62.72
2023-04-08T16:49:14.518Z,63.73
2023-04-08T16:51:43.423Z,64.66
2023-04-08T16:54:11.258Z,65.53
2023-04-08T16:56:44.283Z,65.36
2023-04-08T16:59:14.083Z,64.75
2023-04-08T17:01:42.269Z,64.02
2023-04-08T17:04:10.755Z,63.13
2023-04-08T17:06:41.234Z,63.14
2023-04-08T17:09:09.497Z,64.09
2023-04-08T17:11:37.794Z,64.53
2023-04-08T17:14:05.774Z,64.56
2023-04-08T17:16:35.117Z,63.89
2023-04-08T17:19:02.986Z,63.95
2023-04-08T17:21:31.389Z,63.23
2023-04-08T17:23:59.354Z,64.68
2023-04-08T17:26:28.525Z,65.75
2023-04-08T17:28:56.482Z,65.89
2023-04-08T17:31:24.691Z,65.80
2023-04-08T17:33:54.592Z,67.23
2023-04-08T17:36:22.769Z,66.80
2023-04-08T17:38:50.950Z,67.57
2023-04-08T17:41:38.229Z,68.13
2023-04-08T17:44:08.244Z,67.71
2023-04-08T17:46:37.555Z,67.04
2023-04-08T17:49:07.031Z,68.26
2023-04-08T17:51:35.704Z,68.30
2023-04-08T17:54:05.259Z,68.39
2023-04-08T17:56:34.395Z,67.69
2023-04-08T17:59:02.893Z,66.93
2023-04-08T18:01:45.463Z,67.96
2023-04-08T18:04:17.139Z,66.77
2023-04-08T18:06:45.399Z,66.17
2023-04-08T18:09:13.358Z,67.31
2023-04-08T18:11:41.443Z,66.93
2023-04-08T18:14:12.572Z,69.81
2023-04-08T18:16:40.609Z,68.25
2023-04-08T18:19:08.731Z,68.82
2023-04-08T18:21:38.299Z,68.70
2023-04-08T18:24:08.038Z,68.58
2023-04-08T18:26:37.191Z,68.65
2023-04-08T18:29:05.390Z,68.82
2023-04-08T18:31:34.104Z,69.21
2023-04-08T18:34:02.295Z,67.90
2023-04-08T18:36:30.472Z,67.50
2023-04-08T18:39:00.456Z,68.14
2023-04-08T18:41:29.118Z,69.12
2023-04-08T18:43:58.145Z,68.45
2023-04-08T18:46:29.063Z,67.68
2023-04-08T18:48:57.328Z,68.23
2023-04-08T18:51:26.680Z,69.23
2023-04-08T18:53:54.765Z,69.38
2023-04-08T18:56:24.059Z,68.69
2023-04-08T18:58:55.151Z,68.77
2023-04-08T19:01:23.213Z,68.83
2023-04-08T19:03:51.981Z,69.28
2023-04-08T19:06:22.487Z,69.23
2023-04-08T19:08:50.497Z,70.01
2023-04-08T19:11:18.741Z,70.72
2023-04-08T19:13:48.685Z,70.47
2023-04-08T19:16:16.773Z,69.62
2023-04-08T19:18:45.346Z,69.10
2023-04-08T19:21:13.825Z,69.63
2023-04-08T19:23:42.056Z,70.19
2023-04-08T19:26:10.183Z,69.89
2023-04-08T19:28:38.075Z,69.81
2023-04-08T19:31:16.018Z,70.07
2023-04-08T19:33:44.489Z,70.15
2023-04-08T19:36:12.563Z,70.58
2023-04-08T19:38:40.382Z,70.65
2023-04-08T19:41:08.436Z,70.34
2023-04-08T19:43:36.381Z,70.72
2023-04-08T19:46:04.697Z,71.48
2023-04-08T19:48:34.823Z,70.12
2023-04-08T19:51:03.662Z,70.16
2023-04-08T19:53:31.843Z,70.20
2023-04-08T19:56:01.372Z,69.70
2023-04-08T19:58:29.776Z,69.97
2023-04-08T20:00:58.024Z,69.34
2023-04-08T20:03:26.454Z,69.60
2023-04-08T20:05:55.932Z,69.49
2023-04-08T20:08:23.758Z,69.65
2023-04-08T20:10:51.621Z,70.00
2023-04-08T20:13:19.435Z,69.43
2023-04-08T20:15:47.745Z,69.26
2023-04-08T20:18:16.369Z,69.14
2023-04-08T20:20:44.291Z,68.50
2023-04-08T20:23:13.692Z,69.56
2023-04-08T20:25:41.582Z,70.00
2023-04-08T20:28:09.755Z,69.09
2023-04-08T20:30:38.000Z,69.45
2023-04-08T20:33:06.025Z,69.42
2023-04-08T20:35:33.922Z,68.86
2023-04-08T20:38:02.520Z,69.14
2023-04-08T20:40:31.753Z,68.81
2023-04-08T20:42:59.585Z,68.58
2023-04-08T20:45:27.367Z,68.47
2023-04-08T20:47:57.576Z,68.35
2023-04-08T20:50:27.824Z,68.99
2023-04-08T20:52:55.640Z,69.29
2023-04-08T20:55:23.478Z,70.82
2023-04-08T20:57:52.695Z,70.40
2023-04-08T21:00:20.639Z,70.85
2023-04-08T21:02:49.327Z,70.83
2023-04-08T21:05:17.229Z,71.87
2023-04-08T21:07:45.175Z,72.99
2023-04-08T21:10:14.187Z,72.96
2023-04-08T21:12:42.095Z,73.50
2023-04-08T21:15:12.144Z,74.59
2023-04-08T21:17:40.027Z,73.82
2023-04-08T21:20:09.190Z,73.59
2023-04-08T21:22:37.013Z,74.10
2023-04-08T21:25:05.555Z,74.83
2023-04-08T21:27:33.402Z,75.30
2023-04-08T21:30:01.220Z,75.61
2023-04-08T21:32:30.665Z,74.81
2023-04-08T21:34:58.686Z,75.06
2023-04-08T21:37:26.574Z,73.83
2023-04-08T21:39:54.471Z,73.09
2023-04-08T21:42:22.991Z,73.95
2023-04-08T21:44:51.010Z,74.41
2023-04-08T21:47:18.992Z,75.11
2023-04-08T21:49:48.588Z,74.85
2023-04-08T21:52:16.458Z,76.07
2023-04-08T21:54:45.295Z,76.32
2023-04-08T21:57:13.180Z,75.93
2023-04-08T21:59:41.070Z,75.36
2023-04-08T22:02:11.159Z,75.51
2023-04-08T22:04:39.488Z,75.07
2023-04-08T22:07:08.776Z,75.67
2023-04-08T22:09:36.696Z,75.83
2023-04-08T22:12:04.945Z,75.14
2023-04-08T22:14:32.838Z,75.14
2023-04-08T22:17:00.786Z,74.25
2023-04-08T22:19:28.619Z,74.79
2023-04-08T22:21:56.529Z,74.87
2023-04-08T22:24:27.631Z,76.47
2023-04-08T22:26:56.038Z,76.65
2023-04-08T22:29:24.004Z,77.49
2023-04-08T22:31:52.636Z,78.65
2023-04-08T22:34:20.509Z,79.12
2023-04-08T22:36:48.465Z,79.50
2023-04-08T22:39:16.298Z,79.88
2023-04-08T22:41:46.731Z,80.14
2023-04-08T22:44:14.603Z,79.72
2023-04-08T22:46:42.711Z,79.38
2023-04-08T22:49:10.824Z,77.42
2023-04-08T22:51:38.651Z,76.19
2023-04-08T22:54:06.745Z,76.61
2023-04-08T22:56:34.537Z,75.56
2023-04-08T22:59:03.816Z,75.78
2023-04-08T23:01:31.852Z,77.40
2023-04-08T23:03:59.772Z,77.63
2023-04-08T23:06:28.987Z,79.61
2023-04-08T23:08:56.845Z,77.78
2023-04-08T23:11:24.704Z,78.63
2023-04-08T23:13:53.025Z,78.45
2023-04-08T23:16:22.570Z,76.98
2023-04-08T23:18:50.972Z,77.27
2023-04-08T23:21:20.304Z,76.03
2023-04-08T23:23:48.943Z,75.02
2023-04-08T23:26:20.883Z,75.90
2023-04-08T23:28:49.126Z,76.83
2023-04-08T23:31:17.237Z,78.17
2023-04-08T23:33:48.877Z,78.21
2023-04-08T23:36:16.812Z,78.12
2023-04-08T23:38:44.774Z,78.11
2023-04-08T23:41:12.588Z,78.38
2023-04-08T23:43:40.445Z,78.04
2023-04-08T23:46:08.691Z,76.96
2023-04-08T23:48:38.826Z,76.91
2023-04-08T23:51:08.224Z,76.99
2023-04-08T23:53:36.076Z,76.07
2023-04-08T23:56:06.573Z,75.65
2023-04-08T23:58:34.936Z,76.19
